sensor_id;sensor_type;location;lat;lon;timestamp;P1;durP1;ratioP1;P2;durP2;ratioP2
64957;SDS011;51486;50.232;19.208;2022-12-18T00:03:50;36.33;;;13.30;;
64957;SDS011;51486;50.232;19.208;2022-12-18T00:06:16;39.10;;;12.67;;
64957;SDS011;51486;50.232;19.208;2022-12-18T00:08:43;39.40;;;13.50;;
64957;SDS011;51486;50.232;19.208;2022-12-18T00:11:11;38.93;;;12.30;;
64957;SDS011;51486;50.232;19.208;2022-12-18T00:13:37;37.40;;;13.30;;
64957;SDS011;51486;50.232;19.208;2022-12-18T00:16:04;35.30;;;13.00;;
64957;SDS011;51486;50.232;19.208;2022-12-18T00:18:31;36.70;;;12.37;;
64957;SDS011;51486;50.232;19.208;2022-12-18T00:21:02;34.87;;;11.33;;
64957;SDS011;51486;50.232;19.208;2022-12-18T00:23:29;34.40;;;13.13;;
64957;SDS011;51486;50.232;19.208;2022-12-18T00:25:59;32.23;;;12.40;;
64957;SDS011;51486;50.232;19.208;2022-12-18T00:28:28;29.17;;;12.10;;
64957;SDS011;51486;50.232;19.208;2022-12-18T00:31:10;36.67;;;12.43;;
64957;SDS011;51486;50.232;19.208;2022-12-18T00:33:37;36.93;;;12.57;;
64957;SDS011;51486;50.232;19.208;2022-12-18T00:36:07;29.87;;;12.17;;
64957;SDS011;51486;50.232;19.208;2022-12-18T00:38:35;34.77;;;13.43;;
64957;SDS011;51486;50.232;19.208;2022-12-18T00:41:01;29.27;;;11.97;;
64957;SDS011;51486;50.232;19.208;2022-12-18T00:43:27;29.20;;;12.10;;
64957;SDS011;51486;50.232;19.208;2022-12-18T00:45:53;39.67;;;13.93;;
64957;SDS011;51486;50.232;19.208;2022-12-18T00:48:18;38.23;;;14.03;;
64957;SDS011;51486;50.232;19.208;2022-12-18T00:50:47;42.83;;;13.93;;
64957;SDS011;51486;50.232;19.208;2022-12-18T00:53:13;37.20;;;13.53;;
64957;SDS011;51486;50.232;19.208;2022-12-18T00:55:41;43.83;;;14.30;;
64957;SDS011;51486;50.232;19.208;2022-12-18T00:58:07;29.80;;;12.90;;
64957;SDS011;51486;50.232;19.208;2022-12-18T01:00:33;31.13;;;13.10;;
64957;SDS011;51486;50.232;19.208;2022-12-18T01:02:58;34.23;;;14.07;;
64957;SDS011;51486;50.232;19.208;2022-12-18T01:05:24;32.53;;;14.10;;
64957;SDS011;51486;50.232;19.208;2022-12-18T01:07:49;37.30;;;15.47;;
64957;SDS011;51486;50.232;19.208;2022-12-18T01:10:15;37.83;;;14.13;;
64957;SDS011;51486;50.232;19.208;2022-12-18T01:12:40;35.47;;;13.87;;
64957;SDS011;51486;50.232;19.208;2022-12-18T01:15:13;43.97;;;15.03;;
64957;SDS011;51486;50.232;19.208;2022-12-18T01:17:39;40.80;;;13.53;;
64957;SDS011;51486;50.232;19.208;2022-12-18T01:20:04;42.70;;;14.10;;
64957;SDS011;51486;50.232;19.208;2022-12-18T01:22:30;39.73;;;16.20;;
64957;SDS011;51486;50.232;19.208;2022-12-18T01:24:59;39.00;;;14.97;;
64957;SDS011;51486;50.232;19.208;2022-12-18T01:27:26;40.50;;;14.27;;
64957;SDS011;51486;50.232;19.208;2022-12-18T01:29:51;33.17;;;14.33;;
64957;SDS011;51486;50.232;19.208;2022-12-18T01:32:17;36.23;;;13.57;;
64957;SDS011;51486;50.232;19.208;2022-12-18T01:34:42;42.77;;;13.93;;
64957;SDS011;51486;50.232;19.208;2022-12-18T01:37:08;40.23;;;13.10;;
64957;SDS011;51486;50.232;19.208;2022-12-18T01:39:33;34.90;;;12.97;;
64957;SDS011;51486;50.232;19.208;2022-12-18T01:41:59;32.83;;;13.07;;
64957;SDS011;51486;50.232;19.208;2022-12-18T01:50:27;33.87;;;13.63;;
64957;SDS011;51486;50.232;19.208;2022-12-18T01:55:35;37.60;;;14.20;;
64957;SDS011;51486;50.232;19.208;2022-12-18T01:58:06;48.90;;;14.70;;
64957;SDS011;51486;50.232;19.208;2022-12-18T02:00:31;36.13;;;13.87;;
64957;SDS011;51486;50.232;19.208;2022-12-18T02:02:57;37.20;;;14.63;;
64957;SDS011;51486;50.232;19.208;2022-12-18T02:17:16;33.00;;;12.03;;
64957;SDS011;51486;50.232;19.208;2022-12-18T02:25:19;41.83;;;12.93;;
64957;SDS011;51486;50.232;19.208;2022-12-18T02:27:54;37.67;;;13.03;;
64957;SDS011;51486;50.232;19.208;2022-12-18T02:30:21;46.80;;;13.13;;
64957;SDS011;51486;50.232;19.208;2022-12-18T02:32:50;36.73;;;14.63;;
64957;SDS011;51486;50.232;19.208;2022-12-18T02:35:24;29.90;;;11.93;;
64957;SDS011;51486;50.232;19.208;2022-12-18T02:37:52;32.97;;;11.47;;
64957;SDS011;51486;50.232;19.208;2022-12-18T02:40:18;31.70;;;12.23;;
64957;SDS011;51486;50.232;19.208;2022-12-18T02:42:44;40.53;;;13.13;;
64957;SDS011;51486;50.232;19.208;2022-12-18T02:45:10;34.83;;;13.43;;
64957;SDS011;51486;50.232;19.208;2022-12-18T02:47:40;31.10;;;12.10;;
64957;SDS011;51486;50.232;19.208;2022-12-18T02:50:22;30.00;;;12.20;;
64957;SDS011;51486;50.232;19.208;2022-12-18T02:58:16;40.37;;;13.23;;
64957;SDS011;51486;50.232;19.208;2022-12-18T03:00:58;30.57;;;12.67;;
64957;SDS011;51486;50.232;19.208;2022-12-18T03:03:33;34.47;;;12.97;;
64957;SDS011;51486;50.232;19.208;2022-12-18T03:08:37;33.30;;;13.57;;
64957;SDS011;51486;50.232;19.208;2022-12-18T03:11:13;35.87;;;14.20;;
64957;SDS011;51486;50.232;19.208;2022-12-18T03:13:49;41.60;;;14.57;;
64957;SDS011;51486;50.232;19.208;2022-12-18T03:16:18;41.27;;;13.80;;
64957;SDS011;51486;50.232;19.208;2022-12-18T03:21:13;36.97;;;13.23;;
64957;SDS011;51486;50.232;19.208;2022-12-18T03:23:42;41.60;;;13.97;;
64957;SDS011;51486;50.232;19.208;2022-12-18T03:26:12;56.93;;;15.73;;
64957;SDS011;51486;50.232;19.208;2022-12-18T03:28:46;47.00;;;16.70;;
64957;SDS011;51486;50.232;19.208;2022-12-18T03:31:15;36.27;;;15.77;;
64957;SDS011;51486;50.232;19.208;2022-12-18T03:33:51;37.90;;;14.70;;
64957;SDS011;51486;50.232;19.208;2022-12-18T03:36:17;42.23;;;13.87;;
64957;SDS011;51486;50.232;19.208;2022-12-18T03:38:43;31.30;;;12.63;;
64957;SDS011;51486;50.232;19.208;2022-12-18T03:43:58;37.10;;;13.73;;
64957;SDS011;51486;50.232;19.208;2022-12-18T03:49:10;41.37;;;13.73;;
64957;SDS011;51486;50.232;19.208;2022-12-18T03:51:40;34.13;;;13.40;;
64957;SDS011;51486;50.232;19.208;2022-12-18T03:54:13;35.37;;;13.17;;
64957;SDS011;51486;50.232;19.208;2022-12-18T03:56:40;31.00;;;12.87;;
64957;SDS011;51486;50.232;19.208;2022-12-18T03:59:10;39.73;;;13.93;;
64957;SDS011;51486;50.232;19.208;2022-12-18T04:01:39;32.40;;;13.10;;
64957;SDS011;51486;50.232;19.208;2022-12-18T04:04:08;24.33;;;11.40;;
64957;SDS011;51486;50.232;19.208;2022-12-18T04:06:36;45.17;;;14.13;;
64957;SDS011;51486;50.232;19.208;2022-12-18T04:09:02;32.67;;;12.57;;
64957;SDS011;51486;50.232;19.208;2022-12-18T04:11:29;29.97;;;11.57;;
64957;SDS011;51486;50.232;19.208;2022-12-18T04:13:57;34.60;;;13.63;;
64957;SDS011;51486;50.232;19.208;2022-12-18T04:16:26;44.53;;;15.33;;
64957;SDS011;51486;50.232;19.208;2022-12-18T04:18:52;38.27;;;12.77;;
64957;SDS011;51486;50.232;19.208;2022-12-18T04:21:18;42.73;;;16.53;;
64957;SDS011;51486;50.232;19.208;2022-12-18T04:23:44;43.07;;;14.77;;
64957;SDS011;51486;50.232;19.208;2022-12-18T04:26:09;45.57;;;16.23;;
64957;SDS011;51486;50.232;19.208;2022-12-18T04:28:35;38.43;;;14.80;;
64957;SDS011;51486;50.232;19.208;2022-12-18T04:31:01;47.90;;;14.30;;
64957;SDS011;51486;50.232;19.208;2022-12-18T04:33:26;47.60;;;16.07;;
64957;SDS011;51486;50.232;19.208;2022-12-18T04:35:51;49.67;;;16.10;;
64957;SDS011;51486;50.232;19.208;2022-12-18T04:38:17;51.93;;;15.47;;
64957;SDS011;51486;50.232;19.208;2022-12-18T04:40:42;41.00;;;16.70;;
64957;SDS011;51486;50.232;19.208;2022-12-18T04:43:08;46.23;;;14.47;;
64957;SDS011;51486;50.232;19.208;2022-12-18T04:45:33;36.03;;;14.80;;
64957;SDS011;51486;50.232;19.208;2022-12-18T04:47:59;46.80;;;16.03;;
64957;SDS011;51486;50.232;19.208;2022-12-18T04:50:26;42.37;;;15.00;;
64957;SDS011;51486;50.232;19.208;2022-12-18T04:52:52;42.23;;;16.20;;
64957;SDS011;51486;50.232;19.208;2022-12-18T04:55:18;35.43;;;14.80;;
64957;SDS011;51486;50.232;19.208;2022-12-18T04:57:43;48.00;;;15.97;;
64957;SDS011;51486;50.232;19.208;2022-12-18T05:00:09;49.03;;;16.67;;
64957;SDS011;51486;50.232;19.208;2022-12-18T05:02:34;48.37;;;15.83;;
64957;SDS011;51486;50.232;19.208;2022-12-18T05:05:00;37.70;;;16.07;;
64957;SDS011;51486;50.232;19.208;2022-12-18T05:07:25;51.13;;;16.43;;
64957;SDS011;51486;50.232;19.208;2022-12-18T05:09:50;33.73;;;13.87;;
64957;SDS011;51486;50.232;19.208;2022-12-18T05:12:16;41.70;;;16.60;;
64957;SDS011;51486;50.232;19.208;2022-12-18T05:14:41;38.33;;;15.97;;
64957;SDS011;51486;50.232;19.208;2022-12-18T05:17:06;41.63;;;15.57;;
64957;SDS011;51486;50.232;19.208;2022-12-18T05:19:32;44.43;;;16.43;;
64957;SDS011;51486;50.232;19.208;2022-12-18T05:21:57;40.53;;;14.23;;
64957;SDS011;51486;50.232;19.208;2022-12-18T05:24:23;50.57;;;17.23;;
64957;SDS011;51486;50.232;19.208;2022-12-18T05:26:48;49.60;;;16.77;;
64957;SDS011;51486;50.232;19.208;2022-12-18T05:29:15;48.17;;;16.87;;
64957;SDS011;51486;50.232;19.208;2022-12-18T05:31:40;45.57;;;16.37;;
64957;SDS011;51486;50.232;19.208;2022-12-18T05:34:06;49.03;;;16.80;;
64957;SDS011;51486;50.232;19.208;2022-12-18T05:36:31;41.23;;;15.23;;
64957;SDS011;51486;50.232;19.208;2022-12-18T05:38:57;45.60;;;15.77;;
64957;SDS011;51486;50.232;19.208;2022-12-18T05:41:22;50.20;;;18.20;;
64957;SDS011;51486;50.232;19.208;2022-12-18T05:43:47;47.27;;;16.20;;
64957;SDS011;51486;50.232;19.208;2022-12-18T05:46:14;46.30;;;17.60;;
64957;SDS011;51486;50.232;19.208;2022-12-18T05:48:42;51.83;;;17.30;;
64957;SDS011;51486;50.232;19.208;2022-12-18T05:51:15;46.80;;;18.40;;
64957;SDS011;51486;50.232;19.208;2022-12-18T05:53:42;48.40;;;17.87;;
64957;SDS011;51486;50.232;19.208;2022-12-18T05:56:10;43.10;;;16.97;;
64957;SDS011;51486;50.232;19.208;2022-12-18T05:58:37;44.07;;;17.00;;
64957;SDS011;51486;50.232;19.208;2022-12-18T06:01:10;41.70;;;16.73;;
64957;SDS011;51486;50.232;19.208;2022-12-18T06:03:40;45.77;;;17.87;;
64957;SDS011;51486;50.232;19.208;2022-12-18T06:06:27;47.37;;;16.13;;
64957;SDS011;51486;50.232;19.208;2022-12-18T06:08:52;46.23;;;15.70;;
64957;SDS011;51486;50.232;19.208;2022-12-18T06:11:20;46.87;;;18.00;;
64957;SDS011;51486;50.232;19.208;2022-12-18T06:13:51;43.93;;;17.13;;
64957;SDS011;51486;50.232;19.208;2022-12-18T06:16:17;55.73;;;17.00;;
64957;SDS011;51486;50.232;19.208;2022-12-18T06:18:43;52.80;;;17.23;;
64957;SDS011;51486;50.232;19.208;2022-12-18T06:21:08;44.27;;;17.30;;
64957;SDS011;51486;50.232;19.208;2022-12-18T06:23:34;44.07;;;16.53;;
64957;SDS011;51486;50.232;19.208;2022-12-18T06:26:03;57.00;;;20.27;;
64957;SDS011;51486;50.232;19.208;2022-12-18T06:28:30;73.13;;;23.90;;
64957;SDS011;51486;50.232;19.208;2022-12-18T06:30:55;72.80;;;25.40;;
64957;SDS011;51486;50.232;19.208;2022-12-18T06:33:20;56.70;;;23.83;;
64957;SDS011;51486;50.232;19.208;2022-12-18T06:35:46;74.63;;;24.53;;
64957;SDS011;51486;50.232;19.208;2022-12-18T06:38:11;67.17;;;24.73;;
64957;SDS011;51486;50.232;19.208;2022-12-18T06:40:37;63.93;;;23.83;;
64957;SDS011;51486;50.232;19.208;2022-12-18T06:43:04;72.63;;;26.03;;
64957;SDS011;51486;50.232;19.208;2022-12-18T06:45:29;65.00;;;24.83;;
64957;SDS011;51486;50.232;19.208;2022-12-18T06:47:54;78.43;;;27.13;;
64957;SDS011;51486;50.232;19.208;2022-12-18T06:50:20;69.87;;;26.63;;
64957;SDS011;51486;50.232;19.208;2022-12-18T06:52:45;57.70;;;23.27;;
64957;SDS011;51486;50.232;19.208;2022-12-18T06:55:11;70.90;;;25.20;;
64957;SDS011;51486;50.232;19.208;2022-12-18T06:57:37;70.30;;;23.93;;
64957;SDS011;51486;50.232;19.208;2022-12-18T07:00:03;58.13;;;23.60;;
64957;SDS011;51486;50.232;19.208;2022-12-18T07:02:30;65.00;;;23.93;;
64957;SDS011;51486;50.232;19.208;2022-12-18T07:04:55;58.90;;;22.97;;
64957;SDS011;51486;50.232;19.208;2022-12-18T07:07:21;49.33;;;19.17;;
64957;SDS011;51486;50.232;19.208;2022-12-18T07:09:46;62.10;;;22.10;;
64957;SDS011;51486;50.232;19.208;2022-12-18T07:12:12;62.60;;;23.20;;
64957;SDS011;51486;50.232;19.208;2022-12-18T07:14:38;54.60;;;21.90;;
64957;SDS011;51486;50.232;19.208;2022-12-18T07:17:03;52.43;;;19.20;;
64957;SDS011;51486;50.232;19.208;2022-12-18T07:19:29;62.30;;;22.33;;
64957;SDS011;51486;50.232;19.208;2022-12-18T07:21:54;63.83;;;20.90;;
64957;SDS011;51486;50.232;19.208;2022-12-18T07:24:20;50.67;;;18.90;;
64957;SDS011;51486;50.232;19.208;2022-12-18T07:26:45;43.40;;;19.13;;
64957;SDS011;51486;50.232;19.208;2022-12-18T07:29:11;72.10;;;22.20;;
64957;SDS011;51486;50.232;19.208;2022-12-18T07:31:36;64.40;;;22.20;;
64957;SDS011;51486;50.232;19.208;2022-12-18T07:34:02;62.73;;;22.03;;
64957;SDS011;51486;50.232;19.208;2022-12-18T07:36:27;57.27;;;21.10;;
64957;SDS011;51486;50.232;19.208;2022-12-18T07:38:53;59.07;;;20.77;;
64957;SDS011;51486;50.232;19.208;2022-12-18T07:41:18;54.67;;;20.97;;
64957;SDS011;51486;50.232;19.208;2022-12-18T07:43:44;59.40;;;22.57;;
64957;SDS011;51486;50.232;19.208;2022-12-18T07:46:10;62.13;;;21.57;;
64957;SDS011;51486;50.232;19.208;2022-12-18T07:48:36;60.37;;;21.57;;
64957;SDS011;51486;50.232;19.208;2022-12-18T07:51:02;52.07;;;20.43;;
64957;SDS011;51486;50.232;19.208;2022-12-18T07:53:29;50.77;;;21.53;;
64957;SDS011;51486;50.232;19.208;2022-12-18T07:55:58;66.33;;;21.57;;
64957;SDS011;51486;50.232;19.208;2022-12-18T07:58:25;62.60;;;23.63;;
64957;SDS011;51486;50.232;19.208;2022-12-18T08:00:51;60.90;;;21.40;;
64957;SDS011;51486;50.232;19.208;2022-12-18T08:03:17;58.43;;;21.70;;
64957;SDS011;51486;50.232;19.208;2022-12-18T08:05:42;61.57;;;21.67;;
64957;SDS011;51486;50.232;19.208;2022-12-18T08:08:08;53.63;;;19.60;;
64957;SDS011;51486;50.232;19.208;2022-12-18T08:10:33;57.70;;;22.13;;
64957;SDS011;51486;50.232;19.208;2022-12-18T08:12:59;59.63;;;20.50;;
64957;SDS011;51486;50.232;19.208;2022-12-18T08:15:24;56.30;;;22.03;;
64957;SDS011;51486;50.232;19.208;2022-12-18T08:17:49;65.47;;;23.47;;
64957;SDS011;51486;50.232;19.208;2022-12-18T08:20:15;48.73;;;21.40;;
64957;SDS011;51486;50.232;19.208;2022-12-18T08:22:42;62.37;;;22.27;;
64957;SDS011;51486;50.232;19.208;2022-12-18T08:25:07;74.13;;;24.20;;
64957;SDS011;51486;50.232;19.208;2022-12-18T08:27:33;59.87;;;22.93;;
64957;SDS011;51486;50.232;19.208;2022-12-18T08:29:59;65.87;;;20.73;;
64957;SDS011;51486;50.232;19.208;2022-12-18T08:32:25;60.27;;;21.37;;
64957;SDS011;51486;50.232;19.208;2022-12-18T08:34:51;66.50;;;22.10;;
64957;SDS011;51486;50.232;19.208;2022-12-18T08:37:17;52.93;;;20.17;;
64957;SDS011;51486;50.232;19.208;2022-12-18T08:39:42;62.03;;;20.23;;
64957;SDS011;51486;50.232;19.208;2022-12-18T08:42:07;67.77;;;23.13;;
64957;SDS011;51486;50.232;19.208;2022-12-18T08:44:51;51.37;;;19.37;;
64957;SDS011;51486;50.232;19.208;2022-12-18T08:47:17;57.00;;;21.13;;
64957;SDS011;51486;50.232;19.208;2022-12-18T08:49:42;55.37;;;21.13;;
64957;SDS011;51486;50.232;19.208;2022-12-18T08:52:07;48.53;;;20.10;;
64957;SDS011;51486;50.232;19.208;2022-12-18T08:54:33;51.67;;;18.70;;
64957;SDS011;51486;50.232;19.208;2022-12-18T08:56:59;46.27;;;17.97;;
64957;SDS011;51486;50.232;19.208;2022-12-18T08:59:24;57.20;;;19.23;;
64957;SDS011;51486;50.232;19.208;2022-12-18T09:01:50;55.13;;;19.53;;
64957;SDS011;51486;50.232;19.208;2022-12-18T09:04:15;55.10;;;20.53;;
64957;SDS011;51486;50.232;19.208;2022-12-18T09:06:41;59.00;;;20.47;;
64957;SDS011;51486;50.232;19.208;2022-12-18T09:09:06;68.80;;;20.87;;
64957;SDS011;51486;50.232;19.208;2022-12-18T09:11:32;66.27;;;22.10;;
64957;SDS011;51486;50.232;19.208;2022-12-18T09:13:59;50.57;;;17.97;;
64957;SDS011;51486;50.232;19.208;2022-12-18T09:16:25;44.17;;;18.87;;
64957;SDS011;51486;50.232;19.208;2022-12-18T09:18:53;56.57;;;18.77;;
64957;SDS011;51486;50.232;19.208;2022-12-18T09:21:24;57.80;;;18.73;;
64957;SDS011;51486;50.232;19.208;2022-12-18T09:23:51;37.97;;;17.93;;
64957;SDS011;51486;50.232;19.208;2022-12-18T09:26:17;45.27;;;17.67;;
64957;SDS011;51486;50.232;19.208;2022-12-18T09:28:43;55.13;;;18.47;;
64957;SDS011;51486;50.232;19.208;2022-12-18T09:31:10;50.20;;;19.00;;
64957;SDS011;51486;50.232;19.208;2022-12-18T09:33:36;63.03;;;20.37;;
64957;SDS011;51486;50.232;19.208;2022-12-18T09:36:05;49.07;;;19.17;;
64957;SDS011;51486;50.232;19.208;2022-12-18T09:38:32;50.80;;;18.50;;
64957;SDS011;51486;50.232;19.208;2022-12-18T09:41:05;52.27;;;18.00;;
64957;SDS011;51486;50.232;19.208;2022-12-18T09:43:59;57.63;;;16.13;;
64957;SDS011;51486;50.232;19.208;2022-12-18T09:46:32;49.77;;;16.83;;
64957;SDS011;51486;50.232;19.208;2022-12-18T09:49:02;46.00;;;14.90;;
64957;SDS011;51486;50.232;19.208;2022-12-18T09:51:37;44.43;;;16.17;;
64957;SDS011;51486;50.232;19.208;2022-12-18T09:54:11;39.93;;;16.30;;
64957;SDS011;51486;50.232;19.208;2022-12-18T09:56:41;44.13;;;16.37;;
64957;SDS011;51486;50.232;19.208;2022-12-18T09:59:14;38.73;;;15.40;;
64957;SDS011;51486;50.232;19.208;2022-12-18T10:01:46;41.97;;;15.70;;
64957;SDS011;51486;50.232;19.208;2022-12-18T10:04:11;38.53;;;15.87;;
64957;SDS011;51486;50.232;19.208;2022-12-18T10:12:21;34.57;;;13.33;;
64957;SDS011;51486;50.232;19.208;2022-12-18T10:15:07;38.90;;;14.47;;
64957;SDS011;51486;50.232;19.208;2022-12-18T10:20:49;40.30;;;16.17;;
64957;SDS011;51486;50.232;19.208;2022-12-18T10:23:20;43.33;;;16.20;;
64957;SDS011;51486;50.232;19.208;2022-12-18T10:26:03;40.97;;;15.43;;
64957;SDS011;51486;50.232;19.208;2022-12-18T10:28:31;46.37;;;15.53;;
64957;SDS011;51486;50.232;19.208;2022-12-18T10:30:58;49.03;;;16.07;;
64957;SDS011;51486;50.232;19.208;2022-12-18T10:33:27;47.93;;;15.03;;
64957;SDS011;51486;50.232;19.208;2022-12-18T10:35:54;33.17;;;14.10;;
64957;SDS011;51486;50.232;19.208;2022-12-18T10:38:21;55.80;;;15.07;;
64957;SDS011;51486;50.232;19.208;2022-12-18T10:41:24;48.27;;;15.53;;
64957;SDS011;51486;50.232;19.208;2022-12-18T10:43:45;26.97;;;13.10;;
64957;SDS011;51486;50.232;19.208;2022-12-18T10:48:41;39.47;;;15.03;;
64957;SDS011;51486;50.232;19.208;2022-12-18T10:51:23;35.00;;;14.93;;
64957;SDS011;51486;50.232;19.208;2022-12-18T10:53:52;54.73;;;15.53;;
64957;SDS011;51486;50.232;19.208;2022-12-18T10:56:20;41.93;;;15.33;;
64957;SDS011;51486;50.232;19.208;2022-12-18T10:58:55;52.60;;;18.17;;
64957;SDS011;51486;50.232;19.208;2022-12-18T11:01:21;55.37;;;19.53;;
64957;SDS011;51486;50.232;19.208;2022-12-18T11:06:17;52.70;;;18.70;;
64957;SDS011;51486;50.232;19.208;2022-12-18T11:08:57;56.03;;;17.97;;
64957;SDS011;51486;50.232;19.208;2022-12-18T11:11:23;56.07;;;17.40;;
64957;SDS011;51486;50.232;19.208;2022-12-18T11:14:05;44.30;;;15.20;;
64957;SDS011;51486;50.232;19.208;2022-12-18T11:16:36;39.50;;;16.90;;
64957;SDS011;51486;50.232;19.208;2022-12-18T11:19:13;47.83;;;17.10;;
64957;SDS011;51486;50.232;19.208;2022-12-18T11:21:46;44.87;;;15.90;;
64957;SDS011;51486;50.232;19.208;2022-12-18T11:24:19;45.50;;;14.93;;
64957;SDS011;51486;50.232;19.208;2022-12-18T11:26:58;35.20;;;14.00;;
64957;SDS011;51486;50.232;19.208;2022-12-18T11:29:37;62.43;;;20.30;;
64957;SDS011;51486;50.232;19.208;2022-12-18T11:32:21;46.63;;;16.47;;
64957;SDS011;51486;50.232;19.208;2022-12-18T11:34:48;40.60;;;15.50;;
64957;SDS011;51486;50.232;19.208;2022-12-18T11:37:18;28.73;;;12.93;;
64957;SDS011;51486;50.232;19.208;2022-12-18T11:39:49;36.80;;;14.97;;
64957;SDS011;51486;50.232;19.208;2022-12-18T11:42:22;28.83;;;11.53;;
64957;SDS011;51486;50.232;19.208;2022-12-18T11:44:59;34.80;;;10.87;;
64957;SDS011;51486;50.232;19.208;2022-12-18T11:47:30;44.33;;;15.37;;
64957;SDS011;51486;50.232;19.208;2022-12-18T11:50:10;29.37;;;12.03;;
64957;SDS011;51486;50.232;19.208;2022-12-18T11:52:39;42.20;;;14.43;;
64957;SDS011;51486;50.232;19.208;2022-12-18T11:55:15;42.63;;;14.43;;
64957;SDS011;51486;50.232;19.208;2022-12-18T11:58:11;24.77;;;11.83;;
64957;SDS011;51486;50.232;19.208;2022-12-18T12:00:47;42.37;;;13.53;;
64957;SDS011;51486;50.232;19.208;2022-12-18T12:09:11;45.70;;;14.00;;
64957;SDS011;51486;50.232;19.208;2022-12-18T12:16:53;76.27;;;22.50;;
64957;SDS011;51486;50.232;19.208;2022-12-18T12:19:33;40.13;;;14.87;;
64957;SDS011;51486;50.232;19.208;2022-12-18T12:24:59;43.97;;;16.93;;
64957;SDS011;51486;50.232;19.208;2022-12-18T12:36:22;86.53;;;25.73;;
64957;SDS011;51486;50.232;19.208;2022-12-18T12:38:59;49.53;;;19.20;;
64957;SDS011;51486;50.232;19.208;2022-12-18T12:41:31;54.40;;;17.63;;
64957;SDS011;51486;50.232;19.208;2022-12-18T12:44:27;49.90;;;17.30;;
64957;SDS011;51486;50.232;19.208;2022-12-18T12:47:00;46.97;;;16.80;;
64957;SDS011;51486;50.232;19.208;2022-12-18T12:49:35;59.50;;;18.03;;
64957;SDS011;51486;50.232;19.208;2022-12-18T12:52:18;50.70;;;20.00;;
64957;SDS011;51486;50.232;19.208;2022-12-18T12:55:07;59.27;;;20.33;;
64957;SDS011;51486;50.232;19.208;2022-12-18T12:57:41;40.33;;;15.47;;
64957;SDS011;51486;50.232;19.208;2022-12-18T13:00:13;38.30;;;15.10;;
64957;SDS011;51486;50.232;19.208;2022-12-18T13:08:25;39.67;;;15.20;;
64957;SDS011;51486;50.232;19.208;2022-12-18T13:10:53;47.20;;;16.77;;
64957;SDS011;51486;50.232;19.208;2022-12-18T13:13:49;49.63;;;17.57;;
64957;SDS011;51486;50.232;19.208;2022-12-18T13:16:19;77.50;;;24.40;;
64957;SDS011;51486;50.232;19.208;2022-12-18T13:18:52;96.87;;;31.10;;
64957;SDS011;51486;50.232;19.208;2022-12-18T13:21:28;59.70;;;22.80;;
64957;SDS011;51486;50.232;19.208;2022-12-18T13:23:56;48.93;;;19.07;;
64957;SDS011;51486;50.232;19.208;2022-12-18T13:31:13;34.07;;;13.23;;
64957;SDS011;51486;50.232;19.208;2022-12-18T13:36:51;35.67;;;16.90;;
64957;SDS011;51486;50.232;19.208;2022-12-18T13:41:45;29.87;;;12.73;;
64957;SDS011;51486;50.232;19.208;2022-12-18T13:44:17;29.50;;;12.07;;
64957;SDS011;51486;50.232;19.208;2022-12-18T13:46:50;31.13;;;12.90;;
64957;SDS011;51486;50.232;19.208;2022-12-18T13:49:22;37.20;;;13.07;;
64957;SDS011;51486;50.232;19.208;2022-12-18T13:51:50;29.53;;;12.03;;
64957;SDS011;51486;50.232;19.208;2022-12-18T13:54:19;37.57;;;14.50;;
64957;SDS011;51486;50.232;19.208;2022-12-18T13:56:47;28.30;;;12.03;;
64957;SDS011;51486;50.232;19.208;2022-12-18T14:07:04;33.87;;;14.50;;
64957;SDS011;51486;50.232;19.208;2022-12-18T14:09:59;29.07;;;13.70;;
64957;SDS011;51486;50.232;19.208;2022-12-18T14:17:54;75.70;;;27.67;;
64957;SDS011;51486;50.232;19.208;2022-12-18T14:20:22;86.67;;;29.83;;
64957;SDS011;51486;50.232;19.208;2022-12-18T14:22:49;88.07;;;31.30;;
64957;SDS011;51486;50.232;19.208;2022-12-18T14:27:53;72.87;;;26.77;;
64957;SDS011;51486;50.232;19.208;2022-12-18T14:30:32;78.23;;;28.73;;
64957;SDS011;51486;50.232;19.208;2022-12-18T14:35:51;73.17;;;29.97;;
64957;SDS011;51486;50.232;19.208;2022-12-18T14:38:26;76.40;;;29.80;;
64957;SDS011;51486;50.232;19.208;2022-12-18T14:40:58;63.00;;;26.97;;
64957;SDS011;51486;50.232;19.208;2022-12-18T14:43:40;59.17;;;25.13;;
64957;SDS011;51486;50.232;19.208;2022-12-18T14:48:52;59.77;;;22.03;;
64957;SDS011;51486;50.232;19.208;2022-12-18T14:51:22;55.93;;;20.53;;
64957;SDS011;51486;50.232;19.208;2022-12-18T14:53:53;58.40;;;21.33;;
64957;SDS011;51486;50.232;19.208;2022-12-18T14:58:56;51.77;;;21.07;;
64957;SDS011;51486;50.232;19.208;2022-12-18T15:01:28;42.47;;;18.33;;
64957;SDS011;51486;50.232;19.208;2022-12-18T15:03:56;54.83;;;18.70;;
64957;SDS011;51486;50.232;19.208;2022-12-18T15:06:26;49.33;;;18.17;;
64957;SDS011;51486;50.232;19.208;2022-12-18T15:08:55;52.93;;;19.23;;
64957;SDS011;51486;50.232;19.208;2022-12-18T15:14:21;44.30;;;17.43;;
64957;SDS011;51486;50.232;19.208;2022-12-18T15:16:54;47.73;;;19.03;;
64957;SDS011;51486;50.232;19.208;2022-12-18T15:19:27;49.90;;;19.17;;
64957;SDS011;51486;50.232;19.208;2022-12-18T15:21:58;66.83;;;22.63;;
64957;SDS011;51486;50.232;19.208;2022-12-18T15:24:26;61.23;;;23.23;;
64957;SDS011;51486;50.232;19.208;2022-12-18T15:26:54;54.37;;;22.83;;
64957;SDS011;51486;50.232;19.208;2022-12-18T15:29:21;71.07;;;23.73;;
64957;SDS011;51486;50.232;19.208;2022-12-18T15:32:00;74.20;;;23.93;;
64957;SDS011;51486;50.232;19.208;2022-12-18T15:34:30;71.50;;;24.23;;
64957;SDS011;51486;50.232;19.208;2022-12-18T15:36:58;77.30;;;28.67;;
64957;SDS011;51486;50.232;19.208;2022-12-18T15:39:24;80.50;;;27.23;;
64957;SDS011;51486;50.232;19.208;2022-12-18T15:41:50;70.57;;;27.10;;
64957;SDS011;51486;50.232;19.208;2022-12-18T15:44:34;73.90;;;26.87;;
64957;SDS011;51486;50.232;19.208;2022-12-18T15:47:00;78.70;;;27.53;;
64957;SDS011;51486;50.232;19.208;2022-12-18T15:49:25;75.87;;;27.57;;
64957;SDS011;51486;50.232;19.208;2022-12-18T15:51:58;89.27;;;33.80;;
64957;SDS011;51486;50.232;19.208;2022-12-18T15:54:24;143.53;;;45.17;;
64957;SDS011;51486;50.232;19.208;2022-12-18T15:57:09;120.37;;;43.30;;
64957;SDS011;51486;50.232;19.208;2022-12-18T15:59:48;111.03;;;39.23;;
64957;SDS011;51486;50.232;19.208;2022-12-18T16:02:14;94.43;;;33.30;;
64957;SDS011;51486;50.232;19.208;2022-12-18T16:04:42;93.33;;;30.87;;
64957;SDS011;51486;50.232;19.208;2022-12-18T16:07:08;78.80;;;28.73;;
64957;SDS011;51486;50.232;19.208;2022-12-18T16:09:34;79.53;;;28.43;;
64957;SDS011;51486;50.232;19.208;2022-12-18T16:11:59;74.17;;;27.50;;
64957;SDS011;51486;50.232;19.208;2022-12-18T16:14:25;89.23;;;31.03;;
64957;SDS011;51486;50.232;19.208;2022-12-18T16:16:59;90.60;;;30.40;;
64957;SDS011;51486;50.232;19.208;2022-12-18T16:19:26;107.60;;;35.50;;
64957;SDS011;51486;50.232;19.208;2022-12-18T16:21:53;93.40;;;34.73;;
64957;SDS011;51486;50.232;19.208;2022-12-18T16:24:27;110.90;;;36.33;;